sensor_id;sensor_type;location;lat;lon;timestamp;pressure;altitude;pressure_sealevel;temperature;humidity
56334;BME280;42240;53.626;55.886;2024-03-06T00:00:27;78890.78;;;-145.10;68.20
56334;BME280;42240;53.626;55.886;2024-03-06T00:02:03;78910.56;;;-145.10;68.89
56334;BME280;42240;53.626;55.886;2024-03-06T00:03:37;78890.78;;;-145.10;69.98
56334;BME280;42240;53.626;55.886;2024-03-06T00:05:12;78912.56;;;-145.10;70.80
56334;BME280;42240;53.626;55.886;2024-03-06T00:06:46;78914.53;;;-145.10;71.03
56334;BME280;42240;53.626;55.886;2024-03-06T00:08:20;78880.91;;;-145.10;71.35
56334;BME280;42240;53.626;55.886;2024-03-06T00:09:54;78932.34;;;-145.10;71.67
56334;BME280;42240;53.626;55.886;2024-03-06T00:11:31;78902.66;;;-145.10;72.07
56334;BME280;42240;53.626;55.886;2024-03-06T00:13:04;78900.69;;;-145.10;72.04
56334;BME280;42240;53.626;55.886;2024-03-06T00:14:38;78914.53;;;-145.10;72.38
56334;BME280;42240;53.626;55.886;2024-03-06T00:16:16;78936.28;;;-145.10;74.31
56334;BME280;42240;53.626;55.886;2024-03-06T00:17:51;79053.03;;;-145.10;73.85
56334;BME280;42240;53.626;55.886;2024-03-06T00:19:25;78946.19;;;-145.10;73.43
56334;BME280;42240;53.626;55.886;2024-03-06T00:21:03;78942.22;;;-145.10;75.15
56334;BME280;42240;53.626;55.886;2024-03-06T00:22:38;78942.22;;;-145.10;74.93
56334;BME280;42240;53.626;55.886;2024-03-06T00:24:13;78952.13;;;-145.10;76.66
56334;BME280;42240;53.626;55.886;2024-03-06T00:25:47;78942.22;;;-145.10;76.90
56334;BME280;42240;53.626;55.886;2024-03-06T00:27:20;78938.28;;;-145.10;76.45
56334;BME280;42240;53.626;55.886;2024-03-06T00:28:54;78930.34;;;-145.10;76.24
56334;BME280;42240;53.626;55.886;2024-03-06T00:30:28;78924.41;;;-145.10;76.21
56334;BME280;42240;53.626;55.886;2024-03-06T00:32:04;78922.44;;;-145.10;76.43
56334;BME280;42240;53.626;55.886;2024-03-06T00:33:37;78938.28;;;-145.10;77.34
56334;BME280;42240;53.626;55.886;2024-03-06T00:35:12;78946.19;;;-145.10;77.21
56334;BME280;42240;53.626;55.886;2024-03-06T00:36:49;78942.22;;;-145.10;77.88
56334;BME280;42240;53.626;55.886;2024-03-06T00:38:26;78948.16;;;-145.10;77.96
56334;BME280;42240;53.626;55.886;2024-03-06T00:40:00;78952.13;;;-145.10;78.73
56334;BME280;42240;53.626;55.886;2024-03-06T00:41:35;78890.78;;;-145.10;78.01
56334;BME280;42240;53.626;55.886;2024-03-06T00:43:09;78878.91;;;-145.10;76.84
56334;BME280;42240;53.626;55.886;2024-03-06T00:44:44;78863.09;;;-145.10;75.78
56334;BME280;42240;53.626;55.886;2024-03-06T00:46:17;78918.50;;;-145.10;75.68
56334;BME280;42240;53.626;55.886;2024-03-06T00:47:51;78906.63;;;-145.10;76.00
56334;BME280;42240;53.626;55.886;2024-03-06T00:49:28;78898.69;;;-145.10;76.68
56334;BME280;42240;53.626;55.886;2024-03-06T00:51:02;78920.47;;;-145.10;76.81
56334;BME280;42240;53.626;55.886;2024-03-06T00:52:37;78882.88;;;-145.10;77.04
56334;BME280;42240;53.626;55.886;2024-03-06T00:54:12;78867.03;;;-145.10;76.20
56334;BME280;42240;53.626;55.886;2024-03-06T00:55:49;78829.44;;;-145.10;75.35
56334;BME280;42240;53.626;55.886;2024-03-06T00:57:23;78803.72;;;-145.10;74.91
56334;BME280;42240;53.626;55.886;2024-03-06T00:58:57;78811.66;;;-145.10;73.23
56334;BME280;42240;53.626;55.886;2024-03-06T01:00:32;78805.72;;;-145.10;72.37
56334;BME280;42240;53.626;55.886;2024-03-06T01:02:07;78841.31;;;-145.10;71.63
56334;BME280;42240;53.626;55.886;2024-03-06T01:03:41;78861.09;;;-145.10;72.60
56334;BME280;42240;53.626;55.886;2024-03-06T01:05:15;78892.75;;;-145.10;74.03
56334;BME280;42240;53.626;55.886;2024-03-06T01:06:49;78914.53;;;-145.10;74.64
56334;BME280;42240;53.626;55.886;2024-03-06T01:08:23;78831.44;;;-145.10;74.44
56334;BME280;42240;53.626;55.886;2024-03-06T01:09:58;78863.09;;;-145.10;73.86
56334;BME280;42240;53.626;55.886;2024-03-06T01:11:33;78819.56;;;-145.10;72.52
56334;BME280;42240;53.626;55.886;2024-03-06T01:13:07;78878.91;;;-145.10;73.35
56334;BME280;42240;53.626;55.886;2024-03-06T01:14:43;78900.69;;;-145.10;75.36
56334;BME280;42240;53.626;55.886;2024-03-06T01:16:17;78859.13;;;-145.10;75.37
56334;BME280;42240;53.626;55.886;2024-03-06T01:17:52;78884.84;;;-145.10;75.33
56334;BME280;42240;53.626;55.886;2024-03-06T01:19:26;78859.13;;;-145.10;75.71
56334;BME280;42240;53.626;55.886;2024-03-06T01:21:01;78851.22;;;-145.10;75.04
56334;BME280;42240;53.626;55.886;2024-03-06T01:22:37;78853.19;;;-145.10;75.55
56334;BME280;42240;53.626;55.886;2024-03-06T01:24:11;78839.34;;;-145.10;74.81
56334;BME280;42240;53.626;55.886;2024-03-06T01:25:44;78882.88;;;-145.10;75.28
56334;BME280;42240;53.626;55.886;2024-03-06T01:27:21;78847.25;;;-145.10;75.80
56334;BME280;42240;53.626;55.886;2024-03-06T01:28:58;78829.44;;;-145.10;75.38
56334;BME280;42240;53.626;55.886;2024-03-06T01:30:32;78843.31;;;-145.10;75.15
56334;BME280;42240;53.626;55.886;2024-03-06T01:32:05;78827.47;;;-145.10;75.35
56334;BME280;42240;53.626;55.886;2024-03-06T01:33:39;78833.41;;;-145.10;75.13
56334;BME280;42240;53.626;55.886;2024-03-06T01:35:13;78815.59;;;-145.10;75.06
56334;BME280;42240;53.626;55.886;2024-03-06T01:36:48;78787.91;;;-145.10;74.91
56334;BME280;42240;53.626;55.886;2024-03-06T01:38:22;78803.72;;;-145.10;74.36
56334;BME280;42240;53.626;55.886;2024-03-06T01:39:56;78805.72;;;-145.10;74.04
56334;BME280;42240;53.626;55.886;2024-03-06T01:41:30;78783.94;;;-145.10;73.58
56334;BME280;42240;53.626;55.886;2024-03-06T01:43:04;78791.88;;;-145.10;73.26
56334;BME280;42240;53.626;55.886;2024-03-06T01:44:40;78827.47;;;-145.10;73.51
56334;BME280;42240;53.626;55.886;2024-03-06T01:46:14;78926.41;;;-145.10;75.02
56334;BME280;42240;53.626;55.886;2024-03-06T01:47:48;78839.34;;;-145.10;75.84
56334;BME280;42240;53.626;55.886;2024-03-06T01:49:26;78839.34;;;-145.10;75.69
56334;BME280;42240;53.626;55.886;2024-03-06T01:51:15;78817.59;;;-145.10;75.62
56334;BME280;42240;53.626;55.886;2024-03-06T01:52:50;78793.84;;;-145.10;76.38
56334;BME280;42240;53.626;55.886;2024-03-06T01:54:25;78787.91;;;-145.10;75.54
56334;BME280;42240;53.626;55.886;2024-03-06T01:55:59;78780.00;;;-145.10;75.25
56334;BME280;42240;53.626;55.886;2024-03-06T01:57:33;78732.50;;;-145.10;73.54
56334;BME280;42240;53.626;55.886;2024-03-06T01:59:08;78740.41;;;-145.10;72.62
56334;BME280;42240;53.626;55.886;2024-03-06T02:01:00;78764.16;;;-145.10;72.41
56334;BME280;42240;53.626;55.886;2024-03-06T02:02:34;78772.06;;;-145.10;72.09
56334;BME280;42240;53.626;55.886;2024-03-06T02:04:09;78744.38;;;-145.10;71.74
56334;BME280;42240;53.626;55.886;2024-03-06T02:05:43;78762.19;;;-145.10;71.87
56334;BME280;42240;53.626;55.886;2024-03-06T02:07:17;78740.41;;;-145.10;72.21
56334;BME280;42240;53.626;55.886;2024-03-06T02:08:52;78742.41;;;-145.10;70.37
56334;BME280;42240;53.626;55.886;2024-03-06T02:10:33;78728.56;;;-145.10;70.46
56334;BME280;42240;53.626;55.886;2024-03-06T02:12:08;78728.56;;;-145.10;70.87
56334;BME280;42240;53.626;55.886;2024-03-06T02:13:43;78736.47;;;-145.10;69.91
56334;BME280;42240;53.626;55.886;2024-03-06T02:15:20;78712.72;;;-145.10;69.21
56334;BME280;42240;53.626;55.886;2024-03-06T02:16:58;78726.56;;;-145.10;69.31
56334;BME280;42240;53.626;55.886;2024-03-06T02:18:31;78744.38;;;-145.10;69.38
56334;BME280;42240;53.626;55.886;2024-03-06T02:20:05;78742.41;;;-145.10;69.75
56334;BME280;42240;53.626;55.886;2024-03-06T02:21:40;78732.50;;;-145.10;69.23
56334;BME280;42240;53.626;55.886;2024-03-06T02:23:13;78714.69;;;-145.10;68.58
56334;BME280;42240;53.626;55.886;2024-03-06T02:24:48;78754.28;;;-145.10;68.87
56334;BME280;42240;53.626;55.886;2024-03-06T02:26:22;78760.22;;;-145.10;69.37
56334;BME280;42240;53.626;55.886;2024-03-06T02:27:56;78736.47;;;-145.10;69.73
56334;BME280;42240;53.626;55.886;2024-03-06T02:29:30;78756.25;;;-145.10;69.59
56334;BME280;42240;53.626;55.886;2024-03-06T02:31:03;78768.13;;;-145.10;69.68
56334;BME280;42240;53.626;55.886;2024-03-06T02:32:45;78756.25;;;-145.10;70.22
56334;BME280;42240;53.626;55.886;2024-03-06T02:34:20;78811.66;;;-145.10;69.67
56334;BME280;42240;53.626;55.886;2024-03-06T02:35:53;78748.34;;;-145.10;70.01
56334;BME280;42240;53.626;55.886;2024-03-06T02:37:27;78698.88;;;-145.10;73.41
56334;BME280;42240;53.626;55.886;2024-03-06T02:39:00;78716.69;;;-145.10;70.23
56334;BME280;42240;53.626;55.886;2024-03-06T02:40:37;78722.63;;;-145.10;68.70
56334;BME280;42240;53.626;55.886;2024-03-06T02:42:10;78706.78;;;-145.10;68.35
56334;BME280;42240;53.626;55.886;2024-03-06T02:43:44;78748.34;;;-145.10;68.39
56334;BME280;42240;53.626;55.886;2024-03-06T02:45:17;78716.69;;;-145.10;68.69
56334;BME280;42240;53.626;55.886;2024-03-06T02:46:51;78732.50;;;-145.10;68.37
56334;BME280;42240;53.626;55.886;2024-03-06T02:48:24;78752.28;;;-145.10;68.87
56334;BME280;42240;53.626;55.886;2024-03-06T02:49:58;78714.69;;;-145.10;69.07
56334;BME280;42240;53.626;55.886;2024-03-06T02:51:34;78702.84;;;-145.10;68.38
56334;BME280;42240;53.626;55.886;2024-03-06T02:53:10;78710.75;;;-145.10;68.04
56334;BME280;42240;53.626;55.886;2024-03-06T02:54:43;78756.25;;;-145.10;67.81
56334;BME280;42240;53.626;55.886;2024-03-06T02:56:17;78665.25;;;-145.10;68.76
56334;BME280;42240;53.626;55.886;2024-03-06T02:57:51;78661.28;;;-145.10;67.30
56334;BME280;42240;53.626;55.886;2024-03-06T02:59:24;78692.94;;;-145.10;66.63
56334;BME280;42240;53.626;55.886;2024-03-06T03:00:58;78677.13;;;-145.10;66.95
56334;BME280;42240;53.626;55.886;2024-03-06T03:02:31;78772.06;;;-145.10;66.76
56334;BME280;42240;53.626;55.886;2024-03-06T03:04:04;78704.81;;;-145.10;66.89
56334;BME280;42240;53.626;55.886;2024-03-06T03:05:39;78696.91;;;-145.10;66.52
56334;BME280;42240;53.626;55.886;2024-03-06T03:07:12;78677.13;;;-145.10;66.16
56334;BME280;42240;53.626;55.886;2024-03-06T03:08:45;78641.50;;;-145.10;65.40
56334;BME280;42240;53.626;55.886;2024-03-06T03:10:18;78661.28;;;-145.10;64.49
56334;BME280;42240;53.626;55.886;2024-03-06T03:11:51;78633.59;;;-145.10;64.13
56334;BME280;42240;53.626;55.886;2024-03-06T03:13:24;78776.03;;;-145.10;63.94
56334;BME280;42240;53.626;55.886;2024-03-06T03:14:57;78700.84;;;-145.10;63.67
56334;BME280;42240;53.626;55.886;2024-03-06T03:16:30;78637.53;;;-145.10;63.45
56334;BME280;42240;53.626;55.886;2024-03-06T03:18:05;78647.44;;;-145.10;62.88
56334;BME280;42240;53.626;55.886;2024-03-06T03:19:38;78722.63;;;-145.10;62.66
56334;BME280;42240;53.626;55.886;2024-03-06T03:21:12;78694.91;;;-145.10;63.44
56334;BME280;42240;53.626;55.886;2024-03-06T03:22:45;78681.06;;;-145.10;63.88
56334;BME280;42240;53.626;55.886;2024-03-06T03:24:18;78679.09;;;-145.10;64.35
56334;BME280;42240;53.626;55.886;2024-03-06T03:25:53;78629.63;;;-145.10;64.83
56334;BME280;42240;53.626;55.886;2024-03-06T03:27:26;78692.94;;;-145.10;64.56
56334;BME280;42240;53.626;55.886;2024-03-06T03:29:00;78681.06;;;-145.10;64.82
56334;BME280;42240;53.626;55.886;2024-03-06T03:30:33;78694.91;;;-145.10;64.66
56334;BME280;42240;53.626;55.886;2024-03-06T03:32:06;78649.41;;;-145.10;63.73
56334;BME280;42240;53.626;55.886;2024-03-06T03:33:41;78615.78;;;-145.10;63.78
56334;BME280;42240;53.626;55.886;2024-03-06T03:35:14;78609.84;;;-145.10;63.67
56334;BME280;42240;53.626;55.886;2024-03-06T03:36:47;78609.84;;;-145.10;62.92
56334;BME280;42240;53.626;55.886;2024-03-06T03:38:28;78641.50;;;-145.10;62.48
56334;BME280;42240;53.626;55.886;2024-03-06T03:40:02;78594.03;;;-145.10;62.14
56334;BME280;42240;53.626;55.886;2024-03-06T03:41:37;78609.84;;;-145.10;61.21
56334;BME280;42240;53.626;55.886;2024-03-06T03:43:11;78586.09;;;-145.10;60.83
56334;BME280;42240;53.626;55.886;2024-03-06T03:44:45;78588.09;;;-145.10;61.20
56334;BME280;42240;53.626;55.886;2024-03-06T03:46:21;78597.97;;;-145.10;60.96
56334;BME280;42240;53.626;55.886;2024-03-06T03:47:56;78584.13;;;-145.10;60.97
56334;BME280;42240;53.626;55.886;2024-03-06T03:49:30;78594.03;;;-145.10;60.34
56334;BME280;42240;53.626;55.886;2024-03-06T03:51:05;78629.63;;;-145.10;61.06
56334;BME280;42240;53.626;55.886;2024-03-06T03:52:40;78621.72;;;-145.10;61.25
56334;BME280;42240;53.626;55.886;2024-03-06T03:54:20;78621.72;;;-145.10;60.85
56334;BME280;42240;53.626;55.886;2024-03-06T03:55:53;78661.28;;;-145.10;61.34
56334;BME280;42240;53.626;55.886;2024-03-06T03:57:27;78635.56;;;-145.10;62.00
56334;BME280;42240;53.626;55.886;2024-03-06T03:59:08;78596.00;;;-145.10;62.31
56334;BME280;42240;53.626;55.886;2024-03-06T04:00:42;78590.06;;;-145.10;62.23
56334;BME280;42240;53.626;55.886;2024-03-06T04:02:15;78635.56;;;-145.10;62.64
56334;BME280;42240;53.626;55.886;2024-03-06T04:03:48;78597.97;;;-145.10;62.23
56334;BME280;42240;53.626;55.886;2024-03-06T04:06:56;78603.91;;;-145.10;61.73
56334;BME280;42240;53.626;55.886;2024-03-06T04:08:31;78653.38;;;-145.10;61.60
56334;BME280;42240;53.626;55.886;2024-03-06T04:10:06;78601.94;;;-145.10;61.70
56334;BME280;42240;53.626;55.886;2024-03-06T04:11:39;78611.81;;;-145.10;62.21
56334;BME280;42240;53.626;55.886;2024-03-06T04:13:15;78576.22;;;-145.10;61.81
56334;BME280;42240;53.626;55.886;2024-03-06T04:14:49;78637.53;;;-145.10;61.33
56334;BME280;42240;53.626;55.886;2024-03-06T04:16:23;78546.53;;;-145.10;61.02
56334;BME280;42240;53.626;55.886;2024-03-06T04:17:56;78516.88;;;-145.10;59.94
56334;BME280;42240;53.626;55.886;2024-03-06T04:19:29;78530.72;;;-145.10;59.18
56334;BME280;42240;53.626;55.886;2024-03-06T04:21:06;78544.56;;;-145.10;59.09
56334;BME280;42240;53.626;55.886;2024-03-06T04:22:40;78546.53;;;-145.10;58.94
56334;BME280;42240;53.626;55.886;2024-03-06T04:24:13;78516.88;;;-145.10;59.18
56334;BME280;42240;53.626;55.886;2024-03-06T04:25:48;78479.28;;;-145.10;58.49
56334;BME280;42240;53.626;55.886;2024-03-06T04:27:24;78514.88;;;-145.10;58.57
56334;BME280;42240;53.626;55.886;2024-03-06T04:28:57;78461.47;;;-145.10;57.66
56334;BME280;42240;53.626;55.886;2024-03-06T04:30:31;78495.09;;;-145.10;57.12
56334;BME280;42240;53.626;55.886;2024-03-06T04:32:05;78471.34;;;-145.10;56.65
56334;BME280;42240;53.626;55.886;2024-03-06T04:33:41;78406.06;;;-145.10;56.67
56334;BME280;42240;53.626;55.886;2024-03-06T04:35:15;78431.78;;;-145.10;56.59
56334;BME280;42240;53.626;55.886;2024-03-06T04:36:48;78459.50;;;-145.10;56.52
56334;BME280;42240;53.626;55.886;2024-03-06T04:38:21;78439.72;;;-145.10;56.01
56334;BME280;42240;53.626;55.886;2024-03-06T04:39:54;78414.00;;;-145.10;55.78
56334;BME280;42240;53.626;55.886;2024-03-06T04:41:27;78419.94;;;-145.10;55.43
56334;BME280;42240;53.626;55.886;2024-03-06T04:43:01;78491.16;;;-145.10;55.55
56334;BME280;42240;53.626;55.886;2024-03-06T04:44:34;78427.84;;;-145.10;55.36
56334;BME280;42240;53.626;55.886;2024-03-06T04:46:12;78360.56;;;-145.10;54.72
56334;BME280;42240;53.626;55.886;2024-03-06T04:47:56;78455.53;;;-145.10;54.55
56334;BME280;42240;53.626;55.886;2024-03-06T04:49:43;78419.94;;;-145.10;55.04
56334;BME280;42240;53.626;55.886;2024-03-06T04:51:31;78364.53;;;-145.10;54.93
56334;BME280;42240;53.626;55.886;2024-03-06T04:53:11;78362.56;;;-145.10;54.59
56334;BME280;42240;53.626;55.886;2024-03-06T04:54:46;78315.06;;;-145.10;54.88
56334;BME280;42240;53.626;55.886;2024-03-06T04:56:19;78352.66;;;-145.10;53.80
56334;BME280;42240;53.626;55.886;2024-03-06T04:57:55;78326.94;;;-145.10;53.34
56334;BME280;42240;53.626;55.886;2024-03-06T04:59:30;78271.56;;;-145.10;52.67
56334;BME280;42240;53.626;55.886;2024-03-06T05:01:04;78311.13;;;-145.10;52.60
56334;BME280;42240;53.626;55.886;2024-03-06T05:02:37;78324.97;;;-145.10;52.29
56334;BME280;42240;53.626;55.886;2024-03-06T05:04:28;78356.63;;;-145.10;52.43
56334;BME280;42240;53.626;55.886;2024-03-06T05:06:18;78321.00;;;-145.10;52.32
56334;BME280;42240;53.626;55.886;2024-03-06T05:08:09;78332.88;;;-145.10;51.53
56334;BME280;42240;53.626;55.886;2024-03-06T05:10:01;78245.84;;;-145.10;52.09
56334;BME280;42240;53.626;55.886;2024-03-06T05:11:51;78249.78;;;-145.10;52.18
56334;BME280;42240;53.626;55.886;2024-03-06T05:13:41;78253.75;;;-145.10;51.73
56334;BME280;42240;53.626;55.886;2024-03-06T05:15:32;78224.06;;;-145.10;51.90
56334;BME280;42240;53.626;55.886;2024-03-06T05:17:22;78235.94;;;-145.10;51.44
56334;BME280;42240;53.626;55.886;2024-03-06T05:19:13;78228.03;;;-145.10;50.96
56334;BME280;42240;53.626;55.886;2024-03-06T05:21:03;78198.34;;;-145.10;51.26
56334;BME280;42240;53.626;55.886;2024-03-06T05:22:54;78180.56;;;-145.10;50.90
56334;BME280;42240;53.626;55.886;2024-03-06T05:24:44;78186.50;;;-145.10;51.04
56334;BME280;42240;53.626;55.886;2024-03-06T05:26:35;78154.84;;;-145.10;50.58
56334;BME280;42240;53.626;55.886;2024-03-06T05:28:25;78182.53;;;-145.10;50.55
56334;BME280;42240;53.626;55.886;2024-03-06T05:30:15;78176.59;;;-145.10;50.34
56334;BME280;42240;53.626;55.886;2024-03-06T05:32:06;78176.59;;;-145.10;50.22
56334;BME280;42240;53.626;55.886;2024-03-06T05:33:58;78190.44;;;-145.10;50.14
56334;BME280;42240;53.626;55.886;2024-03-06T05:35:50;78142.97;;;-145.10;50.13
56334;BME280;42240;53.626;55.886;2024-03-06T05:37:41;78105.38;;;-145.10;49.96
56334;BME280;42240;53.626;55.886;2024-03-06T05:39:31;78079.66;;;-145.10;49.47
56334;BME280;42240;53.626;55.886;2024-03-06T05:41:21;78077.69;;;-145.10;48.88
56334;BME280;42240;53.626;55.886;2024-03-06T05:43:12;78089.56;;;-145.10;48.83
56334;BME280;42240;53.626;55.886;2024-03-06T05:45:02;78061.88;;;-145.10;48.96
56334;BME280;42240;53.626;55.886;2024-03-06T05:47:01;78042.09;;;-145.10;48.77
56334;BME280;42240;53.626;55.886;2024-03-06T05:48:52;77980.78;;;-145.10;48.44
56334;BME280;42240;53.626;55.886;2024-03-06T05:50:42;77978.78;;;-145.10;48.22
56334;BME280;42240;53.626;55.886;2024-03-06T05:52:33;78048.03;;;-145.10;47.40
56334;BME280;42240;53.626;55.886;2024-03-06T05:54:24;77953.06;;;-145.10;47.43
56334;BME280;42240;53.626;55.886;2024-03-06T05:56:14;77980.78;;;-145.10;47.44
56334;BME280;42240;53.626;55.886;2024-03-06T05:58:04;77933.28;;;-145.10;47.42
56334;BME280;42240;53.626;55.886;2024-03-06T05:59:45;77998.56;;;-145.10;46.74
56334;BME280;42240;53.626;55.886;2024-03-06T06:01:18;77976.81;;;-145.10;46.49
56334;BME280;42240;53.626;55.886;2024-03-06T06:02:54;78020.31;;;-145.10;47.55
56334;BME280;42240;53.626;55.886;2024-03-06T06:04:27;78012.41;;;-145.10;46.78
56334;BME280;42240;53.626;55.886;2024-03-06T06:06:00;77905.59;;;-145.10;47.50
56334;BME280;42240;53.626;55.886;2024-03-06T06:07:33;77881.88;;;-145.10;46.71
56334;BME280;42240;53.626;55.886;2024-03-06T06:09:06;77842.31;;;-145.10;46.66
56334;BME280;42240;53.626;55.886;2024-03-06T06:10:39;77850.22;;;-145.10;45.45
56334;BME280;42240;53.626;55.886;2024-03-06T06:12:13;77984.72;;;-145.10;45.69
56334;BME280;42240;53.626;55.886;2024-03-06T06:13:58;77953.06;;;-145.10;45.60
56334;BME280;42240;53.626;55.886;2024-03-06T06:15:53;77986.69;;;-145.10;46.35
56334;BME280;42240;53.626;55.886;2024-03-06T06:17:26;77854.16;;;-145.10;46.77
56334;BME280;42240;53.626;55.886;2024-03-06T06:18:59;77796.81;;;-145.10;46.71
56334;BME280;42240;53.626;55.886;2024-03-06T06:20:32;77806.69;;;-145.10;45.77
56334;BME280;42240;53.626;55.886;2024-03-06T06:22:06;77782.97;;;-145.10;45.03
56334;BME280;42240;53.626;55.886;2024-03-06T06:23:39;77949.13;;;-145.10;44.78
56334;BME280;42240;53.626;55.886;2024-03-06T06:25:12;77972.84;;;-145.10;45.06
56334;BME280;42240;53.626;55.886;2024-03-06T06:26:46;77893.72;;;-145.10;45.76
56334;BME280;42240;53.626;55.886;2024-03-06T06:28:19;77816.59;;;-145.10;44.91
56334;BME280;42240;53.626;55.886;2024-03-06T06:29:51;77666.25;;;-145.10;45.44
56334;BME280;42240;53.626;55.886;2024-03-06T06:31:27;77731.53;;;-145.10;44.01
56334;BME280;42240;53.626;55.886;2024-03-06T06:33:00;77632.63;;;-145.10;44.77
56334;BME280;42240;53.626;55.886;2024-03-06T06:34:33;77595.06;;;-145.10;44.27
56334;BME280;42240;53.626;55.886;2024-03-06T06:36:07;77601.00;;;-145.10;43.79
56334;BME280;42240;53.626;55.886;2024-03-06T06:37:39;77565.38;;;-145.10;43.67
56334;BME280;42240;53.626;55.886;2024-03-06T06:39:12;77557.47;;;-145.10;43.18
56334;BME280;42240;53.626;55.886;2024-03-06T06:40:45;77527.81;;;-145.10;43.29
56334;BME280;42240;53.626;55.886;2024-03-06T06:42:18;77583.19;;;-145.10;41.96
56334;BME280;42240;53.626;55.886;2024-03-06T06:43:51;77608.91;;;-145.10;42.53
56334;BME280;42240;53.626;55.886;2024-03-06T06:45:25;77579.25;;;-145.10;42.69
56334;BME280;42240;53.626;55.886;2024-03-06T06:47:00;77569.34;;;-145.10;43.07
56334;BME280;42240;53.626;55.886;2024-03-06T06:48:33;77595.06;;;-145.10;41.88
56334;BME280;42240;53.626;55.886;2024-03-06T06:50:08;77502.09;;;-145.10;41.84
56334;BME280;42240;53.626;55.886;2024-03-06T06:51:41;77610.88;;;-145.10;41.58
56334;BME280;42240;53.626;55.886;2024-03-06T06:53:14;77678.13;;;-145.10;41.67
56334;BME280;42240;53.626;55.886;2024-03-06T06:54:48;77599.00;;;-145.10;41.97
56334;BME280;42240;53.626;55.886;2024-03-06T06:56:22;77557.47;;;-145.10;42.08
56334;BME280;42240;53.626;55.886;2024-03-06T06:57:56;77527.81;;;-145.10;42.45
56334;BME280;42240;53.626;55.886;2024-03-06T06:59:29;77462.53;;;-145.10;42.09
56334;BME280;42240;53.626;55.886;2024-03-06T07:01:02;77430.91;;;-145.10;41.99
56334;BME280;42240;53.626;55.886;2024-03-06T07:02:37;77480.34;;;-145.10;42.00
56334;BME280;42240;53.626;55.886;2024-03-06T07:04:12;77502.09;;;-145.10;41.35
56334;BME280;42240;53.626;55.886;2024-03-06T07:05:44;77591.09;;;-145.10;41.47
56334;BME280;42240;53.626;55.886;2024-03-06T07:07:17;77599.00;;;-145.10;41.93
56334;BME280;42240;53.626;55.886;2024-03-06T07:08:50;77707.81;;;-145.10;42.12
56334;BME280;42240;53.626;55.886;2024-03-06T07:10:22;77602.97;;;-145.10;42.88
56334;BME280;42240;53.626;55.886;2024-03-06T07:11:56;77654.41;;;-145.10;42.97
56334;BME280;42240;53.626;55.886;2024-03-06T07:13:29;77634.63;;;-145.10;42.82
56334;BME280;42240;53.626;55.886;2024-03-06T07:15:02;77599.00;;;-145.10;42.50
56334;BME280;42240;53.626;55.886;2024-03-06T07:16:44;77577.25;;;-145.10;42.96
56334;BME280;42240;53.626;55.886;2024-03-06T07:18:17;77660.34;;;-145.10;42.60
56334;BME280;42240;53.626;55.886;2024-03-06T07:19:50;77715.72;;;-145.10;43.09
56334;BME280;42240;53.626;55.886;2024-03-06T07:21:25;77691.97;;;-145.10;43.10
56334;BME280;42240;53.626;55.886;2024-03-06T07:22:59;77664.28;;;-145.10;43.45
56334;BME280;42240;53.626;55.886;2024-03-06T07:24:32;77602.97;;;-145.10;43.41
56334;BME280;42240;53.626;55.886;2024-03-06T07:26:08;77622.75;;;-145.10;43.13
56334;BME280;42240;53.626;55.886;2024-03-06T07:27:40;77543.63;;;-145.10;42.64
56334;BME280;42240;53.626;55.886;2024-03-06T07:29:13;77612.84;;;-145.10;43.04
56334;BME280;42240;53.626;55.886;2024-03-06T07:30:47;77608.91;;;-145.10;42.73
56334;BME280;42240;53.626;55.886;2024-03-06T07:32:20;77589.13;;;-145.10;42.62
56334;BME280;42240;53.626;55.886;2024-03-06T07:33:53;77533.75;;;-145.10;42.56
56334;BME280;42240;53.626;55.886;2024-03-06T07:35:26;77456.59;;;-145.10;42.18
56334;BME280;42240;53.626;55.886;2024-03-06T07:36:59;77506.06;;;-145.10;42.25
56334;BME280;42240;53.626;55.886;2024-03-06T07:38:36;77543.63;;;-145.10;41.75
56334;BME280;42240;53.626;55.886;2024-03-06T07:40:10;77498.16;;;-145.10;42.23
56334;BME280;42240;53.626;55.886;2024-03-06T07:41:42;77472.44;;;-145.10;41.20
56334;BME280;42240;53.626;55.886;2024-03-06T07:43:15;77510.00;;;-145.10;42.26
56334;BME280;42240;53.626;55.886;2024-03-06T07:44:48;77492.22;;;-145.10;42.08
56334;BME280;42240;53.626;55.886;2024-03-06T07:46:22;77500.13;;;-145.10;42.19
56334;BME280;42240;53.626;55.886;2024-03-06T07:47:55;77454.63;;;-145.10;41.83
56334;BME280;42240;53.626;55.886;2024-03-06T07:49:28;77460.56;;;-145.10;41.76
56334;BME280;42240;53.626;55.886;2024-03-06T07:51:02;77474.41;;;-145.10;41.47
56334;BME280;42240;53.626;55.886;2024-03-06T07:52:35;77494.19;;;-145.10;41.85
56334;BME280;42240;53.626;55.886;2024-03-06T07:54:09;77476.38;;;-145.10;41.55
56334;BME280;42240;53.626;55.886;2024-03-06T07:55:42;77450.69;;;-145.10;41.20
56334;BME280;42240;53.626;55.886;2024-03-06T07:57:15;77375.53;;;-145.10;41.35
56334;BME280;42240;53.626;55.886;2024-03-06T07:58:49;77369.59;;;-145.10;40.88
56334;BME280;42240;53.626;55.886;2024-03-06T08:00:23;77411.13;;;-145.10;40.82
56334;BME280;42240;53.626;55.886;2024-03-06T08:01:56;77456.59;;;-145.10;41.42
56334;BME280;42240;53.626;55.886;2024-03-06T08:03:30;77428.91;;;-145.10;41.32
56334;BME280;42240;53.626;55.886;2024-03-06T08:05:03;77428.91;;;-145.10;41.38
56334;BME280;42240;53.626;55.886;2024-03-06T08:06:36;77391.34;;;-145.10;41.17
56334;BME280;42240;53.626;55.886;2024-03-06T08:08:09;77377.50;;;-145.10;41.21
56334;BME280;42240;53.626;55.886;2024-03-06T08:09:43;77383.44;;;-145.10;40.84
56334;BME280;42240;53.626;55.886;2024-03-06T08:11:16;77411.13;;;-145.10;41.35